Time;durP1;ratioP1;P1;durP2;ratioP2;P2;SDS_P1;SDS_P2;PMS_P1;PMS_P2;Temp;Humidity;BMP_temperature;BMP_pressure;BME280_temperature;BME280_humidity;BME280_pressure;Samples;Min_cycle;Max_cycle;Signal;HPM_P1;HPM_P2
2020/12/11 00:00:12;;;;;;;9.65;4.13;;;21.80;60.00;;;;;;5073702;28;20047;-50
2020/12/11 00:02:39;;;;;;;14.40;4.45;;;21.80;60.00;;;;;;5073720;28;20895;-51
2020/12/11 00:05:05;;;;;;;18.08;4.93;;;21.80;60.00;;;;;;5074025;28;20087;-51
2020/12/11 00:07:40;;;;;;;9.55;4.10;;;21.80;60.00;;;;;;5073408;28;20468;-50
2020/12/11 00:10:08;;;;;;;15.32;4.38;;;21.90;60.30;;;;;;5073634;28;20044;-51
2020/12/11 00:12:35;;;;;;;9.52;3.75;;;21.90;60.40;;;;;;5073070;28;20025;-51
2020/12/11 00:15:03;;;;;;;13.70;3.90;;;21.90;60.40;;;;;;5073889;28;20020;-51
2020/12/11 00:17:29;;;;;;;16.73;4.13;;;21.90;60.40;;;;;;5073954;28;20032;-51
2020/12/11 00:19:56;;;;;;;16.30;3.83;;;22.00;60.40;;;;;;5073808;28;20025;-51
2020/12/11 00:22:23;;;;;;;10.80;3.78;;;22.00;60.30;;;;;;5073722;28;20346;-50
2020/12/11 00:24:51;;;;;;;9.05;3.83;;;22.10;60.20;;;;;;5073533;28;20461;-51
2020/12/11 00:27:18;;;;;;;15.60;3.50;;;22.10;60.20;;;;;;5073241;28;20024;-50
2020/12/11 00:29:45;;;;;;;12.48;3.65;;;22.20;60.20;;;;;;5072409;28;20024;-51
2020/12/11 00:32:11;;;;;;;14.20;3.78;;;22.20;60.10;;;;;;5073277;28;20477;-51
2020/12/11 00:34:38;;;;;;;8.82;3.00;;;22.30;60.00;;;;;;5073326;28;20020;-50
2020/12/11 00:37:05;;;;;;;18.00;3.22;;;22.30;60.00;;;;;;5073532;28;20100;-51
2020/12/11 00:39:32;;;;;;;12.07;3.00;;;22.30;60.00;;;;;;5073454;28;20441;-51
2020/12/11 00:41:59;;;;;;;8.32;3.08;;;22.40;60.00;;;;;;5072449;28;20143;-50
2020/12/11 00:44:26;;;;;;;12.70;3.38;;;22.40;60.00;;;;;;5073203;28;20032;-51
2020/12/11 00:46:52;;;;;;;11.20;2.97;;;22.40;59.90;;;;;;5073471;28;20021;-51
2020/12/11 00:49:19;;;;;;;11.30;3.20;;;22.50;59.90;;;;;;5073510;28;20028;-51
2020/12/11 00:51:45;;;;;;;10.68;2.78;;;22.50;59.90;;;;;;5073190;28;20051;-51
2020/12/11 00:54:12;;;;;;;12.10;2.78;;;22.60;59.90;;;;;;5077149;28;20020;-51
2020/12/11 00:56:38;;;;;;;10.55;2.90;;;22.60;59.80;;;;;;5077185;28;20017;-51
2020/12/11 00:59:05;;;;;;;13.73;3.22;;;22.70;59.80;;;;;;5067093;28;20025;-51
2020/12/11 01:01:36;;;;;;;13.15;2.85;;;22.70;59.70;;;;;;5072751;28;20457;-50
2020/12/11 01:04:04;;;;;;;17.23;2.83;;;22.80;59.50;;;;;;5076994;28;20020;-51
2020/12/11 01:06:31;;;;;;;11.32;2.97;;;22.80;59.50;;;;;;5075519;28;20036;-51
2020/12/11 01:08:58;;;;;;;6.57;2.45;;;22.90;59.50;;;;;;5075778;28;20048;-51
2020/12/11 01:11:25;;;;;;;13.57;3.10;;;22.90;59.40;;;;;;5073360;28;20028;-50
2020/12/11 01:13:51;;;;;;;8.93;3.22;;;23.00;59.30;;;;;;5076814;28;20021;-51
2020/12/11 01:16:18;;;;;;;9.07;2.30;;;23.00;59.90;;;;;;5076739;28;20095;-51
2020/12/11 01:18:45;;;;;;;7.50;2.78;;;23.10;59.20;;;;;;5076343;28;20367;-51
2020/12/11 01:21:11;;;;;;;12.43;3.10;;;23.10;59.10;;;;;;5076553;28;20090;-50
2020/12/11 01:23:38;;;;;;;20.98;2.97;;;23.10;59.00;;;;;;5076497;28;20099;-48
2020/12/11 01:26:08;;;;;;;18.90;3.20;;;23.20;58.70;;;;;;5076025;28;20103;-50
2020/12/11 01:28:35;;;;;;;15.95;3.00;;;23.20;58.50;;;;;;5073280;28;20039;-49
2020/12/11 01:31:02;;;;;;;11.38;2.60;;;23.30;58.50;;;;;;5069958;28;20051;-50
2020/12/11 01:33:28;;;;;;;21.05;3.05;;;23.30;58.40;;;;;;5072382;28;20070;-50
2020/12/11 01:35:55;;;;;;;13.80;2.97;;;23.40;58.40;;;;;;5076535;28;20016;-50
2020/12/11 01:38:21;;;;;;;9.45;2.80;;;23.40;58.40;;;;;;5076299;28;20400;-50
2020/12/11 01:40:48;;;;;;;13.25;2.97;;;23.40;58.30;;;;;;5076576;28;20028;-49
2020/12/11 01:43:20;;;;;;;16.58;2.72;;;23.50;58.20;;;;;;5075947;28;20108;-49
2020/12/11 01:45:47;;;;;;;17.40;4.40;;;23.50;58.00;;;;;;5075536;28;20048;-49
2020/12/11 01:48:14;;;;;;;15.40;3.05;;;23.50;57.90;;;;;;5076224;28;20032;-49
2020/12/11 01:50:40;;;;;;;12.85;3.00;;;23.50;57.60;;;;;;5076164;28;20066;-49
2020/12/11 01:53:09;;;;;;;12.40;3.00;;;23.50;57.50;;;;;;5075173;28;20112;-49
2020/12/11 01:55:37;;;;;;;14.50;3.05;;;23.50;57.40;;;;;;5075636;28;20103;-50
2020/12/11 01:58:10;;;;;;;17.85;3.25;;;23.50;57.30;;;;;;5076053;28;20364;-50
2020/12/11 02:00:40;;;;;;;19.23;3.05;;;23.50;57.20;;;;;;5074226;28;20089;-50
2020/12/11 02:03:10;;;;;;;10.40;3.00;;;23.50;57.10;;;;;;5071124;28;20021;-50
2020/12/11 02:05:37;;;;;;;10.60;2.78;;;23.50;57.20;;;;;;5074172;28;20043;-49
2020/12/11 02:08:03;;;;;;;14.07;2.95;;;23.50;57.20;;;;;;5076210;28;20444;-49
2020/12/11 02:10:30;;;;;;;18.60;4.22;;;23.50;57.30;;;;;;5073461;28;20035;-50
2020/12/11 02:13:06;;;;;;;29.45;7.03;;;23.50;57.10;;;;;;5071061;28;20449;-50
2020/12/11 02:15:34;;;;;;;29.98;7.22;;;23.50;57.10;;;;;;5075831;28;20052;-49
2020/12/11 02:18:00;;;;;;;32.97;8.63;;;23.50;57.20;;;;;;5074253;28;20020;-50
2020/12/11 02:20:27;;;;;;;34.88;8.98;;;23.50;57.20;;;;;;5072987;28;20021;-49
2020/12/11 02:22:54;;;;;;;26.83;7.25;;;23.60;57.30;;;;;;5071855;28;20030;-50
2020/12/11 02:25:20;;;;;;;24.67;7.45;;;23.60;57.30;;;;;;5074464;28;20021;-50
2020/12/11 02:27:47;;;;;;;26.88;7.72;;;23.70;57.30;;;;;;5064202;28;20100;-49
2020/12/11 02:30:15;;;;;;;26.10;7.18;;;23.70;57.40;;;;;;5073592;28;20020;-49
2020/12/11 02:32:41;;;;;;;31.13;7.30;;;23.80;57.50;;;;;;5065003;28;20115;-49
2020/12/11 02:35:08;;;;;;;22.48;7.35;;;23.90;57.40;;;;;;5074943;28;20032;-49
2020/12/11 02:37:37;;;;;;;32.10;7.80;;;23.90;57.50;;;;;;5073153;28;20016;-49
2020/12/11 02:40:05;;;;;;;24.33;7.35;;;23.90;57.50;;;;;;5070825;28;20020;-49
2020/12/11 02:42:32;;;;;;;24.92;6.80;;;24.00;57.60;;;;;;5074038;28;20389;-49
2020/12/11 02:44:58;;;;;;;27.80;7.07;;;24.10;57.60;;;;;;5074735;28;20117;-50
2020/12/11 02:47:25;;;;;;;22.10;6.65;;;24.20;57.50;;;;;;5073685;28;20016;-49
2020/12/11 02:49:52;;;;;;;23.88;6.28;;;24.30;57.40;;;;;;5074940;28;20078;-50
2020/12/11 02:52:18;;;;;;;31.30;7.07;;;24.30;57.30;;;;;;5062655;28;20509;-51
2020/12/11 02:54:46;;;;;;;23.38;6.68;;;24.40;57.10;;;;;;5061841;28;20048;-50
2020/12/11 02:57:13;;;;;;;24.30;5.53;;;24.40;56.60;;;;;;5069369;28;20457;-50
2020/12/11 02:59:39;;;;;;;22.65;6.25;;;24.50;56.50;;;;;;5071785;28;20056;-50
2020/12/11 03:02:06;;;;;;;24.75;5.88;;;24.50;56.30;;;;;;5069150;28;20438;-50
2020/12/11 03:04:33;;;;;;;29.15;5.72;;;24.60;56.40;;;;;;5074181;28;20029;-49
2020/12/11 03:06:59;;;;;;;19.70;5.78;;;24.60;56.40;;;;;;5074831;28;20020;-49
2020/12/11 03:09:26;;;;;;;21.90;6.10;;;24.60;56.40;;;;;;5074885;28;20032;-50
2020/12/11 03:11:52;;;;;;;20.20;6.70;;;24.60;56.30;;;;;;5074844;28;20024;-50
2020/12/11 03:14:19;;;;;;;26.73;6.32;;;24.60;56.30;;;;;;5067983;28;20023;-50
2020/12/11 03:16:46;;;;;;;25.23;6.32;;;24.70;56.30;;;;;;5070631;28;20024;-50
2020/12/11 03:19:12;;;;;;;18.98;6.10;;;24.70;56.10;;;;;;5072854;28;20372;-50
2020/12/11 03:21:39;;;;;;;26.73;5.63;;;24.70;55.90;;;;;;5068256;28;20036;-50
2020/12/11 03:24:05;;;;;;;21.70;5.72;;;24.70;55.80;;;;;;5071016;28;20033;-50
2020/12/11 03:26:32;;;;;;;17.10;5.50;;;24.70;55.70;;;;;;5074116;28;20083;-49
2020/12/11 03:28:58;;;;;;;19.55;6.00;;;24.70;55.50;;;;;;5073796;28;20356;-49
2020/12/11 03:31:26;;;;;;;14.52;6.15;;;24.70;55.50;;;;;;5073112;28;20033;-49
2020/12/11 03:33:53;;;;;;;30.65;6.28;;;24.70;55.50;;;;;;5074282;28;20100;-49
2020/12/11 03:36:20;;;;;;;13.90;5.50;;;24.70;55.50;;;;;;5073314;28;20020;-49
2020/12/11 03:38:49;;;;;;;16.98;5.70;;;24.70;55.40;;;;;;5073644;28;20016;-49
2020/12/11 03:41:16;;;;;;;16.58;5.97;;;24.70;55.30;;;;;;5073323;28;20495;-49
2020/12/11 03:43:43;;;;;;;14.10;4.60;;;24.70;55.20;;;;;;5072464;28;20024;-50
2020/12/11 03:46:18;;;;;;;16.65;5.95;;;24.70;55.30;;;;;;5068907;28;20028;-49
2020/12/11 03:48:45;;;;;;;22.33;5.55;;;24.70;55.20;;;;;;5065649;28;20071;-50
2020/12/11 03:51:19;;;;;;;17.77;5.93;;;24.60;55.10;;;;;;5067174;28;20021;-49
2020/12/11 03:53:47;;;;;;;18.00;5.45;;;24.60;55.00;;;;;;5064283;28;20058;-50
2020/12/11 03:56:17;;;;;;;16.92;5.35;;;24.60;55.00;;;;;;5064196;28;20024;-49
2020/12/11 03:58:44;;;;;;;14.48;5.88;;;24.60;54.90;;;;;;5067479;28;20111;-49
2020/12/11 04:01:12;;;;;;;16.25;5.45;;;24.50;54.90;;;;;;5070034;28;20040;-50
2020/12/11 04:03:39;;;;;;;14.35;5.25;;;24.50;54.90;;;;;;5071104;28;20020;-49
2020/12/11 04:06:11;;;;;;;19.15;5.95;;;24.50;54.90;;;;;;5073448;28;20027;-49
2020/12/11 04:08:38;;;;;;;22.35;5.60;;;24.40;54.80;;;;;;5073714;28;20338;-49
2020/12/11 04:11:06;;;;;;;12.60;5.32;;;24.40;54.90;;;;;;5071330;28;20035;-50
2020/12/11 04:13:34;;;;;;;18.27;5.63;;;24.30;54.80;;;;;;5073751;28;20074;-50
2020/12/11 04:16:01;;;;;;;33.88;15.52;;;24.30;54.70;;;;;;5073114;28;20028;-50
2020/12/11 04:18:28;;;;;;;23.90;9.30;;;24.30;54.80;;;;;;5072993;28;20031;-50
2020/12/11 04:20:56;;;;;;;28.70;9.98;;;24.20;55.00;;;;;;5073292;28;20037;-50
2020/12/11 04:23:24;;;;;;;19.73;10.07;;;24.20;55.20;;;;;;5073595;28;20031;-50
2020/12/11 04:25:51;;;;;;;25.85;9.63;;;24.10;55.30;;;;;;5072117;28;20020;-49
2020/12/11 04:28:17;;;;;;;20.52;9.10;;;24.10;55.40;;;;;;5072834;28;20337;-50
2020/12/11 04:30:44;;;;;;;25.70;9.05;;;24.10;55.50;;;;;;5072707;28;21806;-50
2020/12/11 04:33:11;;;;;;;21.77;8.57;;;24.00;55.50;;;;;;5072187;28;20473;-50
2020/12/11 04:35:37;;;;;;;23.00;8.40;;;24.00;55.40;;;;;;5070918;28;20056;-50
2020/12/11 04:38:05;;;;;;;19.45;8.70;;;24.00;55.50;;;;;;5073422;28;20049;-50
2020/12/11 04:40:31;;;;;;;22.85;12.98;;;23.90;55.40;;;;;;5071972;28;20024;-50
2020/12/11 04:42:59;;;;;;;19.45;9.90;;;23.90;55.40;;;;;;5073064;28;20460;-50
2020/12/11 04:45:26;;;;;;;19.48;9.00;;;23.80;55.40;;;;;;5071695;28;20036;-50
2020/12/11 04:47:54;;;;;;;19.42;9.85;;;23.80;55.20;;;;;;5070441;28;20028;-50
2020/12/11 04:50:20;;;;;;;19.35;10.02;;;23.70;55.20;;;;;;5065412;28;20021;-51
2020/12/11 04:52:48;;;;;;;18.75;10.13;;;23.70;55.20;;;;;;5073055;28;20020;-50
2020/12/11 04:55:17;;;;;;;20.35;9.73;;;23.60;55.30;;;;;;5071582;28;20026;-51
2020/12/11 04:57:51;;;;;;;20.80;9.55;;;23.60;55.30;;;;;;5059875;28;20112;-50
2020/12/11 05:00:19;;;;;;;18.80;9.45;;;23.50;55.40;;;;;;5070503;28;20023;-49
2020/12/11 05:02:47;;;;;;;17.48;8.68;;;23.50;55.60;;;;;;5068709;28;20078;-50
2020/12/11 05:05:16;;;;;;;21.27;9.15;;;23.40;55.60;;;;;;5071776;28;20346;-50
2020/12/11 05:07:43;;;;;;;20.63;9.30;;;23.30;55.60;;;;;;5072591;28;20472;-49
2020/12/11 05:10:12;;;;;;;21.77;9.48;;;23.20;55.70;;;;;;5072003;28;20024;-50
2020/12/11 05:12:39;;;;;;;25.90;9.35;;;23.20;55.70;;;;;;5072242;28;20025;-49
2020/12/11 05:15:13;;;;;;;19.52;9.45;;;23.10;55.80;;;;;;5071548;28;20020;-50
2020/12/11 05:17:41;;;;;;;17.42;9.30;;;23.10;55.90;;;;;;5073213;28;20024;-50
2020/12/11 05:20:10;;;;;;;17.10;9.05;;;23.00;56.00;;;;;;5072823;28;20024;-49
2020/12/11 05:22:39;;;;;;;28.20;9.90;;;22.90;56.00;;;;;;5073068;28;20035;-50
2020/12/11 05:25:13;;;;;;;19.17;8.15;;;22.90;56.10;;;;;;5073088;28;20021;-49
2020/12/11 05:27:44;;;;;;;25.23;9.60;;;22.80;56.20;;;;;;5071393;28;20029;-51
2020/12/11 05:30:11;;;;;;;34.20;10.40;;;22.70;56.30;;;;;;5067083;28;20028;-51
2020/12/11 05:32:57;;;;;;;35.72;10.18;;;22.70;56.40;;;;;;5071742;28;20111;-51
2020/12/11 05:35:26;;;;;;;33.75;11.77;;;22.60;56.40;;;;;;5072483;28;20028;-50
2020/12/11 05:37:54;;;;;;;30.08;11.02;;;22.50;56.40;;;;;;5071827;28;20094;-51
2020/12/11 05:40:22;;;;;;;38.85;11.18;;;22.50;56.50;;;;;;5076413;28;20461;-51
2020/12/11 05:43:09;;;;;;;24.63;10.52;;;22.40;56.50;;;;;;5076028;28;20028;-49
2020/12/11 05:45:37;;;;;;;27.73;9.85;;;22.40;56.70;;;;;;5066981;28;20361;-50
2020/12/11 05:48:07;;;;;;;26.05;9.95;;;22.30;56.70;;;;;;5075602;28;20112;-50
2020/12/11 05:50:34;;;;;;;30.50;10.15;;;22.20;56.80;;;;;;5075060;28;20118;-51
2020/12/11 05:53:01;;;;;;;28.83;9.80;;;22.20;57.00;;;;;;5076272;28;20464;-49
2020/12/11 05:55:27;;;;;;;25.20;9.35;;;22.20;57.00;;;;;;5076276;28;20051;-49
2020/12/11 05:57:58;;;;;;;25.05;9.48;;;22.20;57.20;;;;;;5076297;28;20063;-49
2020/12/11 06:00:26;;;;;;;32.83;9.00;;;22.10;57.30;;;;;;5074238;28;20095;-49
2020/12/11 06:02:54;;;;;;;25.30;8.52;;;22.10;57.40;;;;;;5055415;28;20364;-49
2020/12/11 06:05:23;;;;;;;21.05;7.95;;;22.10;57.50;;;;;;5073695;28;20338;-49
2020/12/11 06:07:50;;;;;;;46.90;24.58;;;22.00;57.60;;;;;;5060192;28;20021;-51
2020/12/11 06:10:19;;;;;;;33.17;14.85;;;22.00;57.70;;;;;;5073176;28;20036;-50
2020/12/11 06:12:46;;;;;;;23.60;11.45;;;21.90;57.80;;;;;;5075969;28;20357;-50
2020/12/11 06:15:19;;;;;;;27.17;12.35;;;21.90;57.80;;;;;;5075027;28;20024;-49
2020/12/11 06:17:48;;;;;;;21.83;11.32;;;21.80;57.90;;;;;;5062380;28;20063;-50
2020/12/11 06:20:17;;;;;;;23.55;11.13;;;21.90;58.10;;;;;;5074068;28;20091;-50
2020/12/11 06:22:44;;;;;;;26.25;10.23;;;21.80;58.20;;;;;;5074939;28;20067;-50
2020/12/11 06:25:28;;;;;;;23.35;10.45;;;21.80;58.50;;;;;;5074828;28;20025;-49
2020/12/11 06:27:56;;;;;;;18.02;10.20;;;21.80;58.80;;;;;;5075695;28;20017;-49
2020/12/11 06:30:24;;;;;;;18.70;8.82;;;21.90;58.90;;;;;;5075062;28;20029;-49
2020/12/11 06:32:52;;;;;;;23.75;9.52;;;21.80;58.90;;;;;;5063987;28;20083;-49
2020/12/11 06:35:19;;;;;;;22.70;9.07;;;21.90;58.90;;;;;;5074607;28;20029;-49
2020/12/11 06:37:45;;;;;;;14.80;8.20;;;21.90;59.00;;;;;;5059276;28;20021;-50
2020/12/11 06:40:12;;;;;;;18.05;8.27;;;21.90;58.90;;;;;;5066403;28;20020;-49
2020/12/11 06:42:40;;;;;;;26.70;8.50;;;22.00;58.80;;;;;;5068932;28;20028;-49
2020/12/11 06:45:26;;;;;;;17.08;7.82;;;22.00;58.70;;;;;;5067793;28;20044;-49
2020/12/11 06:48:00;;;;;;;23.38;7.53;;;22.00;58.60;;;;;;5070926;28;20095;-50
2020/12/11 06:50:32;;;;;;;17.48;7.35;;;22.10;58.50;;;;;;5072250;28;20025;-50
2020/12/11 06:53:00;;;;;;;18.58;7.32;;;22.10;58.30;;;;;;5073751;28;20174;-51
2020/12/11 06:55:49;;;;;;;15.52;6.90;;;22.10;58.30;;;;;;5074926;28;20036;-50
2020/12/11 06:58:20;;;;;;;17.50;6.63;;;22.10;58.20;;;;;;5072403;28;20033;-50
2020/12/11 07:00:54;;;;;;;12.33;6.27;;;22.20;58.00;;;;;;5073859;28;20111;-50
2020/12/11 07:03:28;;;;;;;12.55;6.93;;;22.20;57.90;;;;;;5074772;28;20052;-51
2020/12/11 07:06:03;;;;;;;17.10;7.05;;;22.20;57.90;;;;;;5074395;28;20020;-49
2020/12/11 07:08:30;;;;;;;15.73;6.22;;;22.20;57.80;;;;;;5073777;28;20047;-50
2020/12/11 07:11:04;;;;;;;14.23;7.28;;;22.20;57.70;;;;;;5074431;28;20020;-49
2020/12/11 07:13:30;;;;;;;13.20;7.05;;;22.20;57.60;;;;;;5073921;28;20702;-50
2020/12/11 07:15:58;;;;;;;10.50;6.40;;;22.20;57.60;;;;;;5073644;28;20025;-49
2020/12/11 07:18:25;;;;;;;13.65;5.68;;;22.20;57.50;;;;;;5073421;28;20460;-49
2020/12/11 07:20:57;;;;;;;11.10;6.57;;;22.20;57.50;;;;;;5059162;28;20054;-50
2020/12/11 07:23:24;;;;;;;15.73;6.60;;;22.20;57.40;;;;;;5073691;28;20040;-49
2020/12/11 07:25:53;;;;;;;17.08;6.55;;;22.20;57.20;;;;;;5074013;28;20020;-49
2020/12/11 07:28:20;;;;;;;20.63;7.38;;;22.20;57.10;;;;;;5073427;28;20016;-47
2020/12/11 07:30:47;;;;;;;14.98;6.60;;;22.20;57.10;;;;;;5074466;28;20133;-47
2020/12/11 07:33:14;;;;;;;10.77;6.57;;;22.30;57.20;;;;;;5071088;28;20021;-47
2020/12/11 07:35:49;;;;;;;13.07;6.03;;;22.30;57.20;;;;;;5062642;28;20468;-47
2020/12/11 07:38:17;;;;;;;13.57;5.72;;;22.30;57.10;;;;;;5074455;28;20024;-47
2020/12/11 07:40:52;;;;;;;11.50;6.10;;;22.40;57.10;;;;;;5071668;28;20025;-47
2020/12/11 07:43:19;;;;;;;11.75;6.07;;;22.40;57.00;;;;;;5069329;28;20088;-47
2020/12/11 07:45:47;;;;;;;12.90;6.22;;;22.50;57.10;;;;;;5073791;28;20051;-47
2020/12/11 07:48:14;;;;;;;12.98;5.80;;;22.50;56.90;;;;;;5068349;28;20025;-47
2020/12/11 07:50:40;;;;;;;19.65;6.30;;;22.60;56.90;;;;;;5074043;28;20017;-47
2020/12/11 07:53:09;;;;;;;19.75;6.15;;;22.60;57.10;;;;;;5072936;28;20016;-47
2020/12/11 07:55:36;;;;;;;17.77;6.30;;;22.70;57.00;;;;;;5072844;28;20338;-47
2020/12/11 07:58:04;;;;;;;16.70;6.05;;;22.70;56.80;;;;;;5073575;28;20020;-47
2020/12/11 08:00:36;;;;;;;13.18;6.03;;;22.70;56.70;;;;;;5072557;28;20502;-47
2020/12/11 08:03:07;;;;;;;16.73;6.18;;;22.80;56.70;;;;;;5072621;28;20473;-47
2020/12/11 08:05:39;;;;;;;16.30;6.03;;;22.80;56.60;;;;;;5072608;28;20025;-47
2020/12/11 08:08:06;;;;;;;9.32;5.40;;;22.80;56.40;;;;;;5073509;28;20183;-47
2020/12/11 08:10:39;;;;;;;9.18;5.38;;;22.90;56.40;;;;;;5073800;28;20033;-47
2020/12/11 08:13:11;;;;;;;20.50;5.82;;;22.90;56.20;;;;;;5073635;28;20020;-47
2020/12/11 08:15:37;;;;;;;;;;;22.90;56.00;;;;;;5073031;28;20027;-47
2020/12/11 08:18:07;;;;;;;12.05;5.55;;;22.90;56.40;;;;;;5073474;28;20000;-47
2020/12/11 08:21:06;;;;;;;13.38;5.40;;;22.90;55.90;;;;;;5073448;28;20020;-47
2020/12/11 08:23:43;;;;;;;11.85;5.20;;;22.90;56.00;;;;;;5071525;28;20038;-47
2020/12/11 08:26:18;;;;;;;10.57;5.32;;;22.90;55.60;;;;;;5072346;28;20155;-47
2020/12/11 08:28:47;;;;;;;8.25;5.20;;;23.00;55.60;;;;;;5073276;28;20023;-47
2020/12/11 08:31:22;;;;;;;7.65;5.50;;;23.00;55.40;;;;;;5072981;28;20055;-47
2020/12/11 08:33:50;;;;;;;12.18;5.43;;;23.00;55.40;;;;;;5073060;28;20020;-48
2020/12/11 08:36:22;;;;;;;9.43;5.30;;;23.00;55.30;;;;;;5073363;28;20356;-47
2020/12/11 08:39:11;;;;;;;8.77;5.40;;;23.00;55.20;;;;;;5073160;28;20376;-47
2020/12/11 08:41:46;;;;;;;11.23;5.40;;;23.00;55.20;;;;;;5073270;28;20037;-47
2020/12/11 08:44:32;;;;;;;10.65;5.50;;;23.00;55.10;;;;;;5073041;28;20028;-47
2020/12/11 08:50:19;;;;;;;10.52;5.13;;;22.90;55.00;;;;;;5091173;28;20127;-47
2020/12/11 08:52:45;;;;;;;7.13;5.25;;;22.90;55.00;;;;;;5091147;28;20031;-47
2020/12/11 08:55:12;;;;;;;9.13;4.85;;;22.90;54.90;;;;;;5079894;28;20044;-47
2020/12/11 08:57:38;;;;;;;7.13;5.05;;;22.90;54.90;;;;;;5073126;28;20074;-47
2020/12/11 09:00:06;;;;;;;8.93;5.32;;;22.90;54.80;;;;;;5071738;28;20020;-47
2020/12/11 09:02:32;;;;;;;10.13;4.93;;;22.90;54.80;;;;;;5072035;28;20032;-47
2020/12/11 09:04:59;;;;;;;7.88;4.85;;;22.90;54.80;;;;;;5071196;28;20025;-48
2020/12/11 09:07:25;;;;;;;9.75;4.80;;;22.80;54.80;;;;;;5086777;28;20023;-48
2020/12/11 09:09:52;;;;;;;9.10;5.60;;;22.80;54.70;;;;;;5093604;28;20026;-48
2020/12/11 09:12:19;;;;;;;7.43;4.65;;;22.80;54.70;;;;;;5081624;28;20081;-47
2020/12/11 09:14:45;;;;;;;9.80;5.22;;;22.70;54.70;;;;;;5073974;28;20284;-47
2020/12/11 09:17:12;;;;;;;9.00;5.15;;;22.70;54.90;;;;;;5075737;28;20020;-47
2020/12/11 09:19:39;;;;;;;9.07;5.20;;;22.70;54.70;;;;;;5077018;28;20103;-47
2020/12/11 09:22:05;;;;;;;8.32;5.30;;;22.60;54.60;;;;;;5076123;28;20368;-47
2020/12/11 09:24:32;;;;;;;6.95;4.70;;;22.60;54.70;;;;;;5076168;28;20123;-48
2020/12/11 09:26:58;;;;;;;7.70;4.97;;;22.50;54.60;;;;;;5076996;28;20032;-47
2020/12/11 09:29:35;;;;;;;7.88;5.57;;;22.50;54.60;;;;;;5076191;28;20115;-47
2020/12/11 09:32:04;;;;;;;9.85;4.93;;;22.40;54.60;;;;;;5076774;28;20083;-47
2020/12/11 09:34:34;;;;;;;10.60;5.32;;;22.40;54.60;;;;;;5076589;28;20020;-47
2020/12/11 09:37:03;;;;;;;9.10;4.93;;;22.40;54.70;;;;;;5076846;28;20048;-47
2020/12/11 09:39:30;;;;;;;11.20;5.30;;;22.30;55.30;;;;;;5075711;28;20526;-47
2020/12/11 09:42:10;;;;;;;8.10;4.78;;;22.30;54.70;;;;;;5076337;28;20063;-47
2020/12/11 09:44:46;;;;;;;6.97;4.78;;;22.20;54.80;;;;;;5076155;28;20020;-48
2020/12/11 09:48:00;;;;;;;7.25;4.85;;;22.20;54.80;;;;;;5076281;28;20031;-47
2020/12/11 09:52:54;;;;;;;8.98;4.68;;;22.10;54.80;;;;;;5076116;28;20093;-47
2020/12/11 09:55:21;;;;;;;7.95;4.68;;;22.00;54.80;;;;;;5075519;28;20406;-48
2020/12/11 09:57:48;;;;;;;7.65;4.75;;;21.90;54.80;;;;;;5075083;28;20073;-47
2020/12/11 10:00:14;;;;;;;7.63;4.78;;;21.90;54.90;;;;;;5076137;28;20112;-48
2020/12/11 10:05:09;;;;;;;9.60;4.90;;;21.80;55.10;;;;;;5075852;28;20024;-48
2020/12/11 10:07:36;;;;;;;7.45;4.78;;;21.80;55.10;;;;;;5076239;28;20020;-47
2020/12/11 10:10:04;;;;;;;7.10;4.53;;;21.70;55.10;;;;;;5075859;28;20027;-47
2020/12/11 10:12:30;;;;;;;6.90;4.75;;;21.70;55.20;;;;;;5074775;28;20029;-47
2020/12/11 10:15:08;;;;;;;7.97;4.68;;;21.60;55.20;;;;;;5073741;28;20372;-47
2020/12/11 10:17:35;;;;;;;7.25;4.50;;;21.60;55.30;;;;;;5075430;28;20035;-47
2020/12/11 10:20:02;;;;;;;7.50;4.57;;;21.40;55.20;;;;;;5075861;28;20107;-47
2020/12/11 10:22:28;;;;;;;7.85;4.85;;;21.50;55.40;;;;;;5075742;28;20064;-47
2020/12/11 10:24:55;;;;;;;7.18;4.55;;;21.40;55.50;;;;;;5075128;28;20021;-47
2020/12/11 10:27:21;;;;;;;6.90;4.50;;;21.30;55.40;;;;;;5075890;28;20096;-47
2020/12/11 10:29:48;;;;;;;6.93;4.55;;;21.20;55.50;;;;;;5073637;28;20028;-47
2020/12/11 10:32:14;;;;;;;7.15;4.70;;;21.20;55.50;;;;;;5074560;28;20040;-47
2020/12/11 10:34:41;;;;;;;6.93;4.47;;;21.20;56.50;;;;;;5075498;28;20032;-47
2020/12/11 10:37:09;;;;;;;6.50;4.55;;;21.10;55.80;;;;;;5074478;28;20023;-47
2020/12/11 10:39:36;;;;;;;6.72;4.63;;;21.00;55.70;;;;;;5074069;28;20025;-47
2020/12/11 10:42:05;;;;;;;6.25;4.40;;;21.00;55.90;;;;;;5075359;28;20033;-47
2020/12/11 10:44:33;;;;;;;8.52;4.80;;;20.90;55.90;;;;;;5075109;28;20021;-47
2020/12/11 10:47:00;;;;;;;6.97;4.43;;;20.90;55.90;;;;;;5074674;28;20074;-48
2020/12/11 10:49:27;;;;;;;6.80;4.70;;;20.80;56.00;;;;;;5075118;28;20048;-48
2020/12/11 10:51:54;;;;;;;8.55;4.80;;;20.80;56.10;;;;;;5075406;28;20351;-47
2020/12/11 10:54:22;;;;;;;6.60;4.82;;;20.70;56.10;;;;;;5074698;28;20021;-48
2020/12/11 10:56:49;;;;;;;6.85;4.63;;;20.60;56.30;;;;;;5075353;28;20027;-47
2020/12/11 10:59:15;;;;;;;5.45;4.45;;;20.60;56.40;;;;;;5074945;28;20020;-47
2020/12/11 11:01:42;;;;;;;7.43;4.63;;;20.50;56.70;;;;;;5074292;28;20029;-47
2020/12/11 11:04:09;;;;;;;8.27;4.70;;;20.50;56.70;;;;;;5073807;28;20021;-47
2020/12/11 11:06:42;;;;;;;7.88;4.35;;;20.40;56.80;;;;;;5072497;28;20046;-47
2020/12/11 11:09:35;;;;;;;7.28;4.70;;;20.30;56.70;;;;;;5080633;28;20031;-47
2020/12/11 11:14:58;;;;;;;6.20;4.45;;;20.30;57.10;;;;;;5074383;28;20020;-47
2020/12/11 11:18:00;;;;;;;6.10;4.50;;;20.10;57.00;;;;;;5074010;28;20452;-47
2020/12/11 11:20:27;;;;;;;7.60;4.50;;;20.10;57.20;;;;;;5073701;28;20036;-47
2020/12/11 11:28:07;;;;;;;6.25;4.53;;;19.90;57.50;;;;;;5074119;28;20028;-47
2020/12/11 11:30:34;;;;;;;6.43;4.35;;;19.80;57.50;;;;;;5073966;28;20023;-47
2020/12/11 11:33:01;;;;;;;6.13;4.40;;;19.80;57.50;;;;;;5073353;28;20086;-47
2020/12/11 11:35:28;;;;;;;5.40;3.90;;;19.70;57.60;;;;;;5073994;28;20036;-47
2020/12/11 11:37:54;;;;;;;6.20;4.05;;;19.70;57.70;;;;;;5072803;28;20360;-47
2020/12/11 11:40:21;;;;;;;5.68;4.25;;;19.70;57.80;;;;;;5074507;28;20024;-47
2020/12/11 11:42:47;;;;;;;6.53;4.38;;;19.60;57.70;;;;;;5073717;28;20040;-47
2020/12/11 11:45:25;;;;;;;5.90;4.03;;;19.50;57.80;;;;;;5073797;28;20032;-47
2020/12/11 11:47:56;;;;;;;5.28;3.88;;;19.50;57.80;;;;;;5073628;28;20031;-48
2020/12/11 11:50:29;;;;;;;6.10;4.20;;;19.40;58.00;;;;;;5073847;28;20028;-48
2020/12/11 11:53:02;;;;;;;6.03;4.30;;;19.40;58.20;;;;;;5074327;28;20032;-47
2020/12/11 11:55:29;;;;;;;7.05;4.10;;;19.30;58.20;;;;;;5073592;28;20074;-47
2020/12/11 11:57:56;;;;;;;6.32;3.88;;;19.30;58.40;;;;;;5073717;28;20022;-47
2020/12/11 12:00:22;;;;;;;6.15;4.20;;;19.20;58.50;;;;;;5073249;28;20033;-47
2020/12/11 12:02:49;;;;;;;5.85;3.72;;;19.20;58.40;;;;;;5073830;28;20040;-47
2020/12/11 12:05:16;;;;;;;6.50;3.97;;;19.10;58.80;;;;;;5074266;28;20024;-47
2020/12/11 12:07:42;;;;;;;5.65;3.90;;;19.10;58.10;;;;;;5073633;28;20024;-47
2020/12/11 12:10:10;;;;;;;6.78;3.60;;;19.00;58.10;;;;;;5073952;28;20028;-47
2020/12/11 12:12:43;;;;;;;5.90;3.72;;;19.00;58.10;;;;;;5073762;28;20086;-47
2020/12/11 12:15:14;;;;;;;5.75;3.83;;;18.90;58.00;;;;;;5072906;28;20029;-47
2020/12/11 12:17:52;;;;;;;4.78;3.63;;;18.90;58.20;;;;;;5073401;28;20515;-47
2020/12/11 12:20:28;;;;;;;6.45;3.80;;;18.80;58.30;;;;;;5073347;28;20102;-47
2020/12/11 12:31:01;;;;;;;7.10;3.38;;;18.60;58.70;;;;;;5072847;28;20043;-47
2020/12/11 12:43:54;;;;;;;7.18;3.40;;;18.40;59.20;;;;;;5073111;28;20055;-47
2020/12/11 12:46:21;;;;;;;6.03;3.53;;;18.30;59.20;;;;;;5073017;28;20024;-47
2020/12/11 12:48:47;;;;;;;4.55;3.40;;;18.30;59.20;;;;;;5076269;28;20024;-47
2020/12/11 12:51:14;;;;;;;5.93;3.92;;;18.30;59.30;;;;;;5077545;28;20031;-47
2020/12/11 12:53:40;;;;;;;6.32;3.78;;;18.20;59.40;;;;;;5077081;28;20060;-47
2020/12/11 12:58:55;;;;;;;4.25;3.13;;;18.10;59.50;;;;;;5077140;28;20035;-47
2020/12/11 13:06:47;;;;;;;4.43;3.20;;;18.00;59.80;;;;;;5075576;28;20131;-49
2020/12/11 13:09:16;;;;;;;6.15;3.20;;;17.90;59.70;;;;;;5092267;28;20468;-47
2020/12/11 13:11:42;;;;;;;4.45;3.40;;;17.90;59.70;;;;;;5057314;28;20064;-47
2020/12/11 13:14:09;;;;;;;5.35;3.28;;;17.90;60.00;;;;;;5075788;28;20535;-47
2020/12/11 13:16:35;;;;;;;5.63;2.92;;;17.80;59.90;;;;;;5076088;28;20021;-47
2020/12/11 13:19:02;;;;;;;6.00;3.20;;;17.80;60.00;;;;;;5076329;28;20456;-47
2020/12/11 13:21:34;;;;;;;5.30;3.15;;;17.80;60.10;;;;;;5076823;28;20036;-47
2020/12/11 13:29:13;;;;;;;5.88;3.00;;;17.60;60.00;;;;;;5076171;28;20020;-47
2020/12/11 13:31:41;;;;;;;4.45;3.22;;;17.60;60.10;;;;;;5076589;28;20056;-47
2020/12/11 13:34:08;;;;;;;3.47;2.63;;;17.60;60.20;;;;;;5075409;28;20066;-47
2020/12/11 13:36:35;;;;;;;5.32;3.42;;;17.50;60.10;;;;;;5075104;28;20035;-48